This is the latest recevied weather packets stored in our database for station/object KV4OP. If no packets are shown the sender has not sent any weather packets the latest 1 day(s).
| Time | Temp. | Humidity | Pressure | Rain* | Wind** | Luminosity | Snow |
|---|---|---|---|---|---|---|---|
| 1778082310 | 30° C | 54% | 1017.9 hPa | 0 mm | - | - | - |
| 1778077858 | 27.78° C | 70% | 1017.9 hPa | 0 mm | - | - | - |
| 1778076655 | 26.67° C | 70% | 1017.9 hPa | 0 mm | - | - | - |
| 1778076354 | 26.67° C | 71% | 1017.9 hPa | 0 mm | - | - | - |
| 1778076060 | 26.67° C | 71% | 1017.9 hPa | 0 mm | - | - | - |
| 1778074548 | 25.56° C | 78% | 1017.8 hPa | 0 mm | - | - | - |
| 1778073344 | 25° C | 80% | 1017.7 hPa | 0 mm | - | - | - |
| 1778072741 | 23.89° C | 82% | 1017.6 hPa | 0 mm | - | - | - |
| 1778072443 | 23.89° C | 82% | 1017.6 hPa | 0 mm | - | - | - |
| 1778070933 | 22.78° C | 85% | 1017.3 hPa | 0 mm | - | - | - |
| 1778069731 | 21.67° C | 86% | 1017.1 hPa | 0 mm | - | - | - |
| 1778069127 | 21.11° C | 87% | 1017.2 hPa | 0 mm | - | - | - |
| 1778068836 | 20.56° C | 88% | 1017.2 hPa | 0 mm | - | - | - |
| 1778068524 | 20.56° C | 88% | 1017.1 hPa | 0 mm | - | - | - |
| 1778067021 | 18.89° C | 89% | 1017.1 hPa | 0 mm | - | - | - |
| 1778066120 | 18.33° C | 89% | 1016.9 hPa | 0 mm | - | - | - |
| 1778064919 | 17.78° C | 89% | 1016.6 hPa | 0 mm | - | - | - |
| 1778064619 | 17.78° C | 89% | 1016.5 hPa | 0 mm | - | - | - |
| 1778064318 | 17.78° C | 89% | 1016.6 hPa | 0 mm | - | - | - |
| 1778063418 | 17.78° C | 89% | 1016.4 hPa | 0 mm | - | - | - |
| 1778063118 | 17.78° C | 89% | 1016.3 hPa | 0 mm | - | - | - |
| 1778062818 | 17.78° C | 89% | 1016.4 hPa | 0 mm | - | - | - |
| 1778061628 | 17.78° C | 89% | 1016.6 hPa | 0 mm | - | - | - |
| 1778061317 | 17.78° C | 88% | 1016.6 hPa | 0 mm | - | - | - |
| 1778061017 | 17.78° C | 88% | 1016.5 hPa | 0 mm | - | - | - |
* Rain latest hour (hover to see other rain measurements)
** Current wind speed in m/s (hover to see current wind gust speed)